Terminal Aerodrome Forecast
Issued by NWS Springfield, MO

Home | Current Version | Previous Version | Text Only | Print | Product List | Glossary On
Versions: 1 2 3 4 5 6 7 8 9 10 11 12 13 14 15 16 17 18 19 20 21 22 23 24 25
653
FTUS43 KSGF 230914 AAB
TAFSGF
TAF AMD
KSGF 230914Z 2309/2406 31012KT P6SM OVC007
     FM231200 32006KT P6SM OVC007
     FM231800 31006KT P6SM OVC015
     FM232200 29005KT P6SM SKC=

USA.gov is the U.S. government's official web portal to all federal, state and local government web resources and services.